sensor_id;sensor_type;location;lat;lon;timestamp;P1;durP1;ratioP1;P2;durP2;ratioP2
22829;SDS011;11581;51.250;6.778;2023-05-07T00:01:08;6.63;;;1.90;;
22829;SDS011;11581;51.250;6.778;2023-05-07T00:03:36;4.50;;;2.33;;
22829;SDS011;11581;51.250;6.778;2023-05-07T00:06:03;4.07;;;1.90;;
22829;SDS011;11581;51.250;6.778;2023-05-07T00:08:29;3.92;;;2.00;;
22829;SDS011;11581;51.250;6.778;2023-05-07T00:10:56;3.95;;;1.92;;
22829;SDS011;11581;51.250;6.778;2023-05-07T00:13:22;3.10;;;2.00;;
22829;SDS011;11581;51.250;6.778;2023-05-07T00:15:49;3.25;;;2.17;;
22829;SDS011;11581;51.250;6.778;2023-05-07T00:18:15;3.78;;;2.00;;
22829;SDS011;11581;51.250;6.778;2023-05-07T00:20:42;3.17;;;1.90;;
22829;SDS011;11581;51.250;6.778;2023-05-07T00:23:08;4.70;;;2.20;;
22829;SDS011;11581;51.250;6.778;2023-05-07T00:25:35;5.03;;;2.05;;
22829;SDS011;11581;51.250;6.778;2023-05-07T00:28:01;6.03;;;2.05;;
22829;SDS011;11581;51.250;6.778;2023-05-07T00:30:28;3.63;;;1.70;;
22829;SDS011;11581;51.250;6.778;2023-05-07T00:32:55;3.47;;;1.73;;
22829;SDS011;11581;51.250;6.778;2023-05-07T00:35:22;3.25;;;1.98;;
22829;SDS011;11581;51.250;6.778;2023-05-07T00:37:48;2.83;;;1.48;;
22829;SDS011;11581;51.250;6.778;2023-05-07T00:40:15;3.97;;;1.85;;
22829;SDS011;11581;51.250;6.778;2023-05-07T00:42:41;3.28;;;1.83;;
22829;SDS011;11581;51.250;6.778;2023-05-07T00:45:15;4.20;;;1.95;;
22829;SDS011;11581;51.250;6.778;2023-05-07T00:47:42;3.50;;;1.67;;
22829;SDS011;11581;51.250;6.778;2023-05-07T00:50:09;5.00;;;2.30;;
22829;SDS011;11581;51.250;6.778;2023-05-07T00:52:37;4.03;;;2.00;;
22829;SDS011;11581;51.250;6.778;2023-05-07T00:55:04;4.45;;;1.80;;
22829;SDS011;11581;51.250;6.778;2023-05-07T00:57:34;3.55;;;1.92;;
22829;SDS011;11581;51.250;6.778;2023-05-07T01:00:04;5.43;;;2.22;;
22829;SDS011;11581;51.250;6.778;2023-05-07T01:02:32;5.53;;;1.55;;
22829;SDS011;11581;51.250;6.778;2023-05-07T01:05:00;3.85;;;2.05;;
22829;SDS011;11581;51.250;6.778;2023-05-07T01:07:28;4.00;;;1.73;;
22829;SDS011;11581;51.250;6.778;2023-05-07T01:09:56;4.25;;;1.80;;
22829;SDS011;11581;51.250;6.778;2023-05-07T01:12:23;5.43;;;1.90;;
22829;SDS011;11581;51.250;6.778;2023-05-07T01:14:54;2.78;;;1.73;;
22829;SDS011;11581;51.250;6.778;2023-05-07T01:17:20;2.65;;;1.48;;
22829;SDS011;11581;51.250;6.778;2023-05-07T01:19:47;3.65;;;1.85;;
22829;SDS011;11581;51.250;6.778;2023-05-07T01:22:14;4.50;;;1.90;;
22829;SDS011;11581;51.250;6.778;2023-05-07T01:24:47;5.22;;;2.20;;
22829;SDS011;11581;51.250;6.778;2023-05-07T01:27:15;3.90;;;1.77;;
22829;SDS011;11581;51.250;6.778;2023-05-07T01:29:42;5.82;;;2.40;;
22829;SDS011;11581;51.250;6.778;2023-05-07T01:32:08;3.60;;;1.90;;
22829;SDS011;11581;51.250;6.778;2023-05-07T01:34:36;6.97;;;1.77;;
22829;SDS011;11581;51.250;6.778;2023-05-07T01:37:03;5.50;;;2.20;;
22829;SDS011;11581;51.250;6.778;2023-05-07T01:39:31;3.05;;;1.90;;
22829;SDS011;11581;51.250;6.778;2023-05-07T01:41:57;5.88;;;1.70;;
22829;SDS011;11581;51.250;6.778;2023-05-07T01:44:26;4.30;;;1.75;;
22829;SDS011;11581;51.250;6.778;2023-05-07T01:46:54;3.47;;;1.92;;
22829;SDS011;11581;51.250;6.778;2023-05-07T01:49:21;5.30;;;2.20;;
22829;SDS011;11581;51.250;6.778;2023-05-07T01:51:47;3.35;;;1.77;;
22829;SDS011;11581;51.250;6.778;2023-05-07T01:54:14;3.92;;;2.00;;
22829;SDS011;11581;51.250;6.778;2023-05-07T01:56:41;4.47;;;1.90;;
22829;SDS011;11581;51.250;6.778;2023-05-07T01:59:08;3.53;;;2.03;;
22829;SDS011;11581;51.250;6.778;2023-05-07T02:01:34;3.67;;;1.90;;
22829;SDS011;11581;51.250;6.778;2023-05-07T02:04:01;3.58;;;1.83;;
22829;SDS011;11581;51.250;6.778;2023-05-07T02:06:28;6.28;;;1.98;;
22829;SDS011;11581;51.250;6.778;2023-05-07T02:09:00;3.45;;;1.48;;
22829;SDS011;11581;51.250;6.778;2023-05-07T02:11:27;3.90;;;1.95;;
22829;SDS011;11581;51.250;6.778;2023-05-07T02:13:54;3.35;;;1.83;;
22829;SDS011;11581;51.250;6.778;2023-05-07T02:16:20;2.38;;;1.48;;
22829;SDS011;11581;51.250;6.778;2023-05-07T02:18:48;2.58;;;1.50;;
22829;SDS011;11581;51.250;6.778;2023-05-07T02:21:15;3.00;;;1.58;;
22829;SDS011;11581;51.250;6.778;2023-05-07T02:23:41;3.03;;;1.50;;
22829;SDS011;11581;51.250;6.778;2023-05-07T02:26:07;2.47;;;1.20;;
22829;SDS011;11581;51.250;6.778;2023-05-07T02:28:34;1.75;;;1.20;;
22829;SDS011;11581;51.250;6.778;2023-05-07T02:31:03;3.55;;;1.50;;
22829;SDS011;11581;51.250;6.778;2023-05-07T02:33:31;3.97;;;1.48;;
22829;SDS011;11581;51.250;6.778;2023-05-07T02:36:05;2.95;;;1.20;;
22829;SDS011;11581;51.250;6.778;2023-05-07T02:38:41;2.63;;;1.50;;
22829;SDS011;11581;51.250;6.778;2023-05-07T02:41:09;3.40;;;1.40;;
22829;SDS011;11581;51.250;6.778;2023-05-07T02:43:35;2.53;;;1.45;;
22829;SDS011;11581;51.250;6.778;2023-05-07T02:46:06;2.03;;;1.30;;
22829;SDS011;11581;51.250;6.778;2023-05-07T02:48:37;2.13;;;1.20;;
22829;SDS011;11581;51.250;6.778;2023-05-07T02:51:03;4.43;;;1.48;;
22829;SDS011;11581;51.250;6.778;2023-05-07T02:53:32;2.50;;;1.50;;
22829;SDS011;11581;51.250;6.778;2023-05-07T02:55:59;2.38;;;1.25;;
22829;SDS011;11581;51.250;6.778;2023-05-07T02:58:26;2.20;;;1.15;;
22829;SDS011;11581;51.250;6.778;2023-05-07T03:00:53;2.33;;;1.08;;
22829;SDS011;11581;51.250;6.778;2023-05-07T03:03:34;2.00;;;1.08;;
22829;SDS011;11581;51.250;6.778;2023-05-07T03:06:01;2.33;;;1.23;;
22829;SDS011;11581;51.250;6.778;2023-05-07T03:08:28;2.22;;;1.10;;
22829;SDS011;11581;51.250;6.778;2023-05-07T03:10:54;5.43;;;1.42;;
22829;SDS011;11581;51.250;6.778;2023-05-07T03:13:21;2.80;;;1.25;;
22829;SDS011;11581;51.250;6.778;2023-05-07T03:15:47;4.00;;;1.23;;
22829;SDS011;11581;51.250;6.778;2023-05-07T03:18:14;1.75;;;0.82;;
22829;SDS011;11581;51.250;6.778;2023-05-07T03:20:40;2.85;;;1.20;;
22829;SDS011;11581;51.250;6.778;2023-05-07T03:23:07;4.55;;;1.55;;
22829;SDS011;11581;51.250;6.778;2023-05-07T03:25:33;2.55;;;1.17;;
22829;SDS011;11581;51.250;6.778;2023-05-07T03:28:00;4.75;;;1.48;;
22829;SDS011;11581;51.250;6.778;2023-05-07T03:30:35;5.00;;;1.50;;
22829;SDS011;11581;51.250;6.778;2023-05-07T03:33:01;3.97;;;1.00;;
22829;SDS011;11581;51.250;6.778;2023-05-07T03:35:28;1.98;;;1.02;;
22829;SDS011;11581;51.250;6.778;2023-05-07T03:37:55;3.38;;;1.15;;
22829;SDS011;11581;51.250;6.778;2023-05-07T03:40:21;2.38;;;1.23;;
22829;SDS011;11581;51.250;6.778;2023-05-07T03:42:52;3.13;;;1.50;;
22829;SDS011;11581;51.250;6.778;2023-05-07T03:45:22;2.58;;;1.30;;
22829;SDS011;11581;51.250;6.778;2023-05-07T03:47:57;2.42;;;1.30;;
22829;SDS011;11581;51.250;6.778;2023-05-07T03:50:23;1.70;;;1.00;;
22829;SDS011;11581;51.250;6.778;2023-05-07T03:52:50;3.47;;;1.30;;
22829;SDS011;11581;51.250;6.778;2023-05-07T03:55:19;3.08;;;1.27;;
22829;SDS011;11581;51.250;6.778;2023-05-07T03:57:50;2.08;;;1.10;;
22829;SDS011;11581;51.250;6.778;2023-05-07T04:00:18;2.08;;;1.10;;
22829;SDS011;11581;51.250;6.778;2023-05-07T04:02:47;1.38;;;1.10;;
22829;SDS011;11581;51.250;6.778;2023-05-07T04:05:20;2.33;;;1.10;;
22829;SDS011;11581;51.250;6.778;2023-05-07T04:07:50;1.95;;;1.10;;
22829;SDS011;11581;51.250;6.778;2023-05-07T04:10:21;3.53;;;1.33;;
22829;SDS011;11581;51.250;6.778;2023-05-07T04:12:51;7.10;;;1.67;;
22829;SDS011;11581;51.250;6.778;2023-05-07T04:15:20;2.92;;;1.33;;
22829;SDS011;11581;51.250;6.778;2023-05-07T04:17:47;2.85;;;1.05;;
22829;SDS011;11581;51.250;6.778;2023-05-07T04:20:16;2.60;;;1.30;;
22829;SDS011;11581;51.250;6.778;2023-05-07T04:22:47;2.13;;;1.20;;
22829;SDS011;11581;51.250;6.778;2023-05-07T04:25:15;1.83;;;1.08;;
22829;SDS011;11581;51.250;6.778;2023-05-07T04:27:42;1.83;;;0.90;;
22829;SDS011;11581;51.250;6.778;2023-05-07T04:30:09;2.80;;;1.20;;
22829;SDS011;11581;51.250;6.778;2023-05-07T04:32:37;3.28;;;1.33;;
22829;SDS011;11581;51.250;6.778;2023-05-07T04:35:05;2.28;;;1.10;;
22829;SDS011;11581;51.250;6.778;2023-05-07T04:37:33;2.63;;;1.17;;
22829;SDS011;11581;51.250;6.778;2023-05-07T04:40:00;2.33;;;0.85;;
22829;SDS011;11581;51.250;6.778;2023-05-07T04:42:27;2.83;;;1.02;;
22829;SDS011;11581;51.250;6.778;2023-05-07T04:44:53;2.42;;;1.00;;
22829;SDS011;11581;51.250;6.778;2023-05-07T04:47:21;1.65;;;1.10;;
22829;SDS011;11581;51.250;6.778;2023-05-07T04:49:49;2.45;;;1.15;;
22829;SDS011;11581;51.250;6.778;2023-05-07T04:52:16;2.60;;;1.17;;
22829;SDS011;11581;51.250;6.778;2023-05-07T04:54:42;2.20;;;1.20;;
22829;SDS011;11581;51.250;6.778;2023-05-07T04:57:09;3.53;;;1.05;;
22829;SDS011;11581;51.250;6.778;2023-05-07T04:59:36;3.03;;;1.20;;
22829;SDS011;11581;51.250;6.778;2023-05-07T05:02:02;2.55;;;1.33;;
22829;SDS011;11581;51.250;6.778;2023-05-07T05:04:30;2.53;;;1.20;;
22829;SDS011;11581;51.250;6.778;2023-05-07T05:06:56;4.38;;;1.02;;
22829;SDS011;11581;51.250;6.778;2023-05-07T05:09:24;1.75;;;1.08;;
22829;SDS011;11581;51.250;6.778;2023-05-07T05:11:50;1.83;;;1.02;;
22829;SDS011;11581;51.250;6.778;2023-05-07T05:14:17;1.80;;;1.15;;
22829;SDS011;11581;51.250;6.778;2023-05-07T05:16:43;1.35;;;0.82;;
22829;SDS011;11581;51.250;6.778;2023-05-07T05:19:10;1.15;;;0.80;;
22829;SDS011;11581;51.250;6.778;2023-05-07T05:21:38;1.27;;;1.05;;
22829;SDS011;11581;51.250;6.778;2023-05-07T05:24:07;1.90;;;1.10;;
22829;SDS011;11581;51.250;6.778;2023-05-07T05:26:34;1.88;;;1.10;;
22829;SDS011;11581;51.250;6.778;2023-05-07T05:29:01;2.75;;;1.17;;
22829;SDS011;11581;51.250;6.778;2023-05-07T05:31:29;2.60;;;1.20;;
22829;SDS011;11581;51.250;6.778;2023-05-07T05:33:56;3.28;;;0.90;;
22829;SDS011;11581;51.250;6.778;2023-05-07T05:36:23;1.67;;;0.90;;
22829;SDS011;11581;51.250;6.778;2023-05-07T05:38:53;1.52;;;0.90;;
22829;SDS011;11581;51.250;6.778;2023-05-07T05:41:21;3.00;;;1.00;;
22829;SDS011;11581;51.250;6.778;2023-05-07T05:43:48;2.97;;;1.00;;
22829;SDS011;11581;51.250;6.778;2023-05-07T05:46:15;2.70;;;1.10;;
22829;SDS011;11581;51.250;6.778;2023-05-07T05:48:42;2.22;;;0.90;;
22829;SDS011;11581;51.250;6.778;2023-05-07T05:51:09;1.65;;;1.00;;
22829;SDS011;11581;51.250;6.778;2023-05-07T05:53:36;2.10;;;0.90;;
22829;SDS011;11581;51.250;6.778;2023-05-07T05:56:02;1.33;;;0.80;;
22829;SDS011;11581;51.250;6.778;2023-05-07T05:58:30;2.95;;;1.00;;
22829;SDS011;11581;51.250;6.778;2023-05-07T06:01:00;2.60;;;1.00;;
22829;SDS011;11581;51.250;6.778;2023-05-07T06:03:28;2.15;;;0.82;;
22829;SDS011;11581;51.250;6.778;2023-05-07T06:05:58;1.60;;;1.00;;
22829;SDS011;11581;51.250;6.778;2023-05-07T06:08:25;1.52;;;0.90;;
22829;SDS011;11581;51.250;6.778;2023-05-07T06:10:52;2.45;;;0.98;;
22829;SDS011;11581;51.250;6.778;2023-05-07T06:13:18;2.47;;;1.30;;
22829;SDS011;11581;51.250;6.778;2023-05-07T06:15:45;2.13;;;0.88;;
22829;SDS011;11581;51.250;6.778;2023-05-07T06:18:12;2.17;;;1.17;;
22829;SDS011;11581;51.250;6.778;2023-05-07T06:20:39;1.45;;;0.88;;
22829;SDS011;11581;51.250;6.778;2023-05-07T06:23:11;1.45;;;0.80;;
22829;SDS011;11581;51.250;6.778;2023-05-07T06:25:38;3.83;;;0.90;;
22829;SDS011;11581;51.250;6.778;2023-05-07T06:28:04;2.88;;;0.80;;
22829;SDS011;11581;51.250;6.778;2023-05-07T06:30:33;1.55;;;0.90;;
22829;SDS011;11581;51.250;6.778;2023-05-07T06:32:59;2.42;;;1.10;;
22829;SDS011;11581;51.250;6.778;2023-05-07T06:35:26;1.58;;;0.77;;
22829;SDS011;11581;51.250;6.778;2023-05-07T06:37:52;1.10;;;0.70;;
22829;SDS011;11581;51.250;6.778;2023-05-07T06:40:22;3.17;;;0.90;;
22829;SDS011;11581;51.250;6.778;2023-05-07T06:42:49;2.00;;;0.90;;
22829;SDS011;11581;51.250;6.778;2023-05-07T06:45:39;2.20;;;1.00;;
22829;SDS011;11581;51.250;6.778;2023-05-07T06:48:06;4.00;;;1.20;;
22829;SDS011;11581;51.250;6.778;2023-05-07T06:50:43;2.80;;;1.00;;
22829;SDS011;11581;51.250;6.778;2023-05-07T06:53:10;3.30;;;0.80;;
22829;SDS011;11581;51.250;6.778;2023-05-07T06:55:37;3.85;;;1.00;;
22829;SDS011;11581;51.250;6.778;2023-05-07T06:58:05;1.58;;;0.80;;
22829;SDS011;11581;51.250;6.778;2023-05-07T07:00:31;2.90;;;0.82;;
22829;SDS011;11581;51.250;6.778;2023-05-07T07:02:58;2.40;;;0.98;;
22829;SDS011;11581;51.250;6.778;2023-05-07T07:05:26;1.52;;;0.75;;
22829;SDS011;11581;51.250;6.778;2023-05-07T07:07:54;1.60;;;0.80;;
22829;SDS011;11581;51.250;6.778;2023-05-07T07:10:21;1.73;;;0.68;;
22829;SDS011;11581;51.250;6.778;2023-05-07T07:12:49;2.05;;;0.85;;
22829;SDS011;11581;51.250;6.778;2023-05-07T07:15:17;1.88;;;0.80;;
22829;SDS011;11581;51.250;6.778;2023-05-07T07:17:47;1.83;;;0.82;;
22829;SDS011;11581;51.250;6.778;2023-05-07T07:20:14;1.42;;;0.65;;
22829;SDS011;11581;51.250;6.778;2023-05-07T07:22:43;2.08;;;0.63;;
22829;SDS011;11581;51.250;6.778;2023-05-07T07:25:10;1.77;;;0.70;;
22829;SDS011;11581;51.250;6.778;2023-05-07T07:27:37;2.65;;;0.82;;
22829;SDS011;11581;51.250;6.778;2023-05-07T07:30:05;1.77;;;0.60;;
22829;SDS011;11581;51.250;6.778;2023-05-07T07:32:35;2.03;;;0.60;;
22829;SDS011;11581;51.250;6.778;2023-05-07T07:35:01;1.60;;;0.77;;
22829;SDS011;11581;51.250;6.778;2023-05-07T07:37:28;1.88;;;0.82;;
22829;SDS011;11581;51.250;6.778;2023-05-07T07:39:55;1.73;;;0.60;;
22829;SDS011;11581;51.250;6.778;2023-05-07T07:42:22;1.02;;;0.60;;
22829;SDS011;11581;51.250;6.778;2023-05-07T07:44:49;2.10;;;0.80;;
22829;SDS011;11581;51.250;6.778;2023-05-07T07:47:18;1.50;;;0.60;;
22829;SDS011;11581;51.250;6.778;2023-05-07T07:49:47;1.35;;;0.55;;
22829;SDS011;11581;51.250;6.778;2023-05-07T07:52:13;4.00;;;0.75;;
22829;SDS011;11581;51.250;6.778;2023-05-07T07:54:41;1.40;;;0.80;;
22829;SDS011;11581;51.250;6.778;2023-05-07T07:57:08;2.35;;;0.93;;
22829;SDS011;11581;51.250;6.778;2023-05-07T07:59:35;2.28;;;0.90;;
22829;SDS011;11581;51.250;6.778;2023-05-07T08:02:03;1.58;;;0.80;;
22829;SDS011;11581;51.250;6.778;2023-05-07T08:04:29;3.17;;;0.70;;
22829;SDS011;11581;51.250;6.778;2023-05-07T08:07:01;1.70;;;0.90;;
22829;SDS011;11581;51.250;6.778;2023-05-07T08:09:29;3.05;;;0.68;;
22829;SDS011;11581;51.250;6.778;2023-05-07T08:11:58;1.10;;;0.70;;
22829;SDS011;11581;51.250;6.778;2023-05-07T08:14:25;1.23;;;0.90;;
22829;SDS011;11581;51.250;6.778;2023-05-07T08:16:53;1.42;;;0.60;;
22829;SDS011;11581;51.250;6.778;2023-05-07T08:19:21;1.50;;;0.70;;
22829;SDS011;11581;51.250;6.778;2023-05-07T08:21:48;3.20;;;1.08;;
22829;SDS011;11581;51.250;6.778;2023-05-07T08:24:16;1.30;;;0.75;;
22829;SDS011;11581;51.250;6.778;2023-05-07T08:26:45;1.30;;;0.70;;
22829;SDS011;11581;51.250;6.778;2023-05-07T08:29:12;3.20;;;0.90;;
22829;SDS011;11581;51.250;6.778;2023-05-07T08:31:38;1.90;;;1.00;;
22829;SDS011;11581;51.250;6.778;2023-05-07T08:34:05;1.65;;;0.85;;
22829;SDS011;11581;51.250;6.778;2023-05-07T08:36:34;2.17;;;1.00;;
22829;SDS011;11581;51.250;6.778;2023-05-07T08:39:01;1.83;;;0.80;;
22829;SDS011;11581;51.250;6.778;2023-05-07T08:41:28;1.98;;;0.68;;
22829;SDS011;11581;51.250;6.778;2023-05-07T08:43:56;1.73;;;0.77;;
22829;SDS011;11581;51.250;6.778;2023-05-07T08:46:24;1.98;;;0.70;;
22829;SDS011;11581;51.250;6.778;2023-05-07T08:48:54;2.28;;;1.00;;
22829;SDS011;11581;51.250;6.778;2023-05-07T08:51:21;1.23;;;0.52;;
22829;SDS011;11581;51.250;6.778;2023-05-07T08:53:48;1.30;;;0.82;;
22829;SDS011;11581;51.250;6.778;2023-05-07T08:56:22;2.00;;;0.80;;
22829;SDS011;11581;51.250;6.778;2023-05-07T08:58:50;2.25;;;0.80;;
22829;SDS011;11581;51.250;6.778;2023-05-07T09:01:21;1.88;;;0.85;;
22829;SDS011;11581;51.250;6.778;2023-05-07T09:03:50;1.40;;;0.73;;
22829;SDS011;11581;51.250;6.778;2023-05-07T09:06:18;0.70;;;0.55;;
22829;SDS011;11581;51.250;6.778;2023-05-07T09:08:49;0.82;;;0.68;;
22829;SDS011;11581;51.250;6.778;2023-05-07T09:11:22;3.05;;;0.90;;
22829;SDS011;11581;51.250;6.778;2023-05-07T09:13:54;2.15;;;0.73;;
22829;SDS011;11581;51.250;6.778;2023-05-07T09:16:23;3.10;;;0.80;;
22829;SDS011;11581;51.250;6.778;2023-05-07T09:18:53;2.55;;;0.90;;
22829;SDS011;11581;51.250;6.778;2023-05-07T09:21:23;2.42;;;0.90;;
22829;SDS011;11581;51.250;6.778;2023-05-07T09:23:52;1.58;;;0.73;;
22829;SDS011;11581;51.250;6.778;2023-05-07T09:26:23;0.90;;;0.50;;
22829;SDS011;11581;51.250;6.778;2023-05-07T09:28:51;2.22;;;0.90;;
22829;SDS011;11581;51.250;6.778;2023-05-07T09:31:19;3.05;;;0.90;;
22829;SDS011;11581;51.250;6.778;2023-05-07T09:33:48;1.98;;;0.75;;
22829;SDS011;11581;51.250;6.778;2023-05-07T09:36:16;1.10;;;0.60;;
22829;SDS011;11581;51.250;6.778;2023-05-07T09:38:43;1.63;;;0.85;;
22829;SDS011;11581;51.250;6.778;2023-05-07T09:41:13;2.47;;;0.88;;
22829;SDS011;11581;51.250;6.778;2023-05-07T09:43:54;1.48;;;0.90;;
22829;SDS011;11581;51.250;6.778;2023-05-07T09:46:30;1.52;;;0.90;;
22829;SDS011;11581;51.250;6.778;2023-05-07T09:49:00;2.38;;;1.08;;
22829;SDS011;11581;51.250;6.778;2023-05-07T09:51:45;2.65;;;0.88;;
22829;SDS011;11581;51.250;6.778;2023-05-07T09:54:15;2.20;;;1.03;;
22829;SDS011;11581;51.250;6.778;2023-05-07T09:56:45;1.92;;;0.85;;
22829;SDS011;11581;51.250;6.778;2023-05-07T09:59:16;2.70;;;0.98;;
22829;SDS011;11581;51.250;6.778;2023-05-07T10:01:44;0.75;;;0.50;;
22829;SDS011;11581;51.250;6.778;2023-05-07T10:04:12;1.60;;;0.73;;
22829;SDS011;11581;51.250;6.778;2023-05-07T10:06:41;2.72;;;1.00;;
22829;SDS011;11581;51.250;6.778;2023-05-07T10:09:09;2.20;;;0.90;;
22829;SDS011;11581;51.250;6.778;2023-05-07T10:11:36;2.72;;;1.10;;
22829;SDS011;11581;51.250;6.778;2023-05-07T10:14:03;2.60;;;0.95;;
22829;SDS011;11581;51.250;6.778;2023-05-07T10:16:33;2.38;;;1.00;;
22829;SDS011;11581;51.250;6.778;2023-05-07T10:19:04;2.45;;;0.75;;
22829;SDS011;11581;51.250;6.778;2023-05-07T10:21:32;2.90;;;1.17;;
22829;SDS011;11581;51.250;6.778;2023-05-07T10:24:08;1.20;;;0.60;;
22829;SDS011;11581;51.250;6.778;2023-05-07T10:26:40;2.78;;;1.27;;
22829;SDS011;11581;51.250;6.778;2023-05-07T10:34:53;2.78;;;0.60;;
22829;SDS011;11581;51.250;6.778;2023-05-07T10:37:23;1.63;;;0.85;;
22829;SDS011;11581;51.250;6.778;2023-05-07T10:39:51;3.85;;;0.80;;
22829;SDS011;11581;51.250;6.778;2023-05-07T10:42:19;2.42;;;0.80;;
22829;SDS011;11581;51.250;6.778;2023-05-07T10:44:49;3.05;;;0.60;;
22829;SDS011;11581;51.250;6.778;2023-05-07T10:47:22;1.35;;;0.60;;
22829;SDS011;11581;51.250;6.778;2023-05-07T10:52:37;1.65;;;0.70;;
22829;SDS011;11581;51.250;6.778;2023-05-07T10:55:19;1.30;;;0.70;;
22829;SDS011;11581;51.250;6.778;2023-05-07T11:01:02;1.02;;;0.55;;
22829;SDS011;11581;51.250;6.778;2023-05-07T11:03:34;1.55;;;0.45;;
22829;SDS011;11581;51.250;6.778;2023-05-07T11:06:13;3.83;;;0.80;;
22829;SDS011;11581;51.250;6.778;2023-05-07T11:09:08;3.78;;;1.30;;
22829;SDS011;11581;51.250;6.778;2023-05-07T11:11:48;1.85;;;0.85;;
22829;SDS011;11581;51.250;6.778;2023-05-07T11:14:42;1.60;;;0.55;;
22829;SDS011;11581;51.250;6.778;2023-05-07T11:17:21;1.83;;;0.55;;
22829;SDS011;11581;51.250;6.778;2023-05-07T11:19:55;1.63;;;0.73;;
22829;SDS011;11581;51.250;6.778;2023-05-07T11:22:42;2.97;;;0.95;;
22829;SDS011;11581;51.250;6.778;2023-05-07T11:25:31;0.98;;;0.50;;
22829;SDS011;11581;51.250;6.778;2023-05-07T11:28:08;1.08;;;0.50;;
22829;SDS011;11581;51.250;6.778;2023-05-07T11:30:41;1.00;;;0.70;;
22829;SDS011;11581;51.250;6.778;2023-05-07T11:33:11;1.25;;;0.80;;
22829;SDS011;11581;51.250;6.778;2023-05-07T11:35:39;1.05;;;0.50;;
22829;SDS011;11581;51.250;6.778;2023-05-07T11:38:11;1.83;;;0.60;;
22829;SDS011;11581;51.250;6.778;2023-05-07T11:40:52;1.48;;;0.65;;
22829;SDS011;11581;51.250;6.778;2023-05-07T11:43:20;1.13;;;0.60;;
22829;SDS011;11581;51.250;6.778;2023-05-07T11:45:46;1.27;;;0.80;;
22829;SDS011;11581;51.250;6.778;2023-05-07T11:48:16;0.50;;;0.43;;
22829;SDS011;11581;51.250;6.778;2023-05-07T11:50:53;1.42;;;0.50;;
22829;SDS011;11581;51.250;6.778;2023-05-07T11:53:35;3.88;;;0.70;;
22829;SDS011;11581;51.250;6.778;2023-05-07T11:56:15;1.48;;;0.63;;
22829;SDS011;11581;51.250;6.778;2023-05-07T11:58:44;4.38;;;0.77;;
22829;SDS011;11581;51.250;6.778;2023-05-07T12:01:12;1.98;;;0.60;;
22829;SDS011;11581;51.250;6.778;2023-05-07T12:03:40;2.38;;;0.95;;
22829;SDS011;11581;51.250;6.778;2023-05-07T12:06:09;1.75;;;0.70;;
22829;SDS011;11581;51.250;6.778;2023-05-07T12:08:37;2.70;;;0.82;;
22829;SDS011;11581;51.250;6.778;2023-05-07T12:11:23;0.70;;;0.45;;
22829;SDS011;11581;51.250;6.778;2023-05-07T12:13:51;0.88;;;0.60;;
22829;SDS011;11581;51.250;6.778;2023-05-07T12:16:17;1.05;;;0.50;;
22829;SDS011;11581;51.250;6.778;2023-05-07T12:18:46;4.72;;;0.88;;
22829;SDS011;11581;51.250;6.778;2023-05-07T12:21:12;0.95;;;0.60;;
22829;SDS011;11581;51.250;6.778;2023-05-07T12:23:39;1.10;;;0.70;;
22829;SDS011;11581;51.250;6.778;2023-05-07T12:26:06;3.25;;;0.90;;
22829;SDS011;11581;51.250;6.778;2023-05-07T12:28:36;1.88;;;0.60;;
22829;SDS011;11581;51.250;6.778;2023-05-07T12:31:04;1.13;;;0.40;;
22829;SDS011;11581;51.250;6.778;2023-05-07T12:33:31;1.85;;;0.70;;
22829;SDS011;11581;51.250;6.778;2023-05-07T12:35:58;1.70;;;0.50;;
22829;SDS011;11581;51.250;6.778;2023-05-07T12:38:32;1.25;;;0.70;;
22829;SDS011;11581;51.250;6.778;2023-05-07T12:41:01;1.25;;;0.65;;
22829;SDS011;11581;51.250;6.778;2023-05-07T12:43:28;1.67;;;0.65;;
22829;SDS011;11581;51.250;6.778;2023-05-07T12:45:56;3.03;;;0.60;;
22829;SDS011;11581;51.250;6.778;2023-05-07T12:48:27;2.80;;;0.88;;
22829;SDS011;11581;51.250;6.778;2023-05-07T12:50:54;6.07;;;0.80;;
22829;SDS011;11581;51.250;6.778;2023-05-07T12:53:21;1.95;;;0.57;;
22829;SDS011;11581;51.250;6.778;2023-05-07T12:55:53;3.50;;;1.08;;
22829;SDS011;11581;51.250;6.778;2023-05-07T12:58:25;2.33;;;0.50;;
22829;SDS011;11581;51.250;6.778;2023-05-07T13:00:53;1.45;;;0.60;;
22829;SDS011;11581;51.250;6.778;2023-05-07T13:03:27;1.45;;;0.68;;
22829;SDS011;11581;51.250;6.778;2023-05-07T13:05:58;1.20;;;0.63;;
22829;SDS011;11581;51.250;6.778;2023-05-07T13:08:26;1.40;;;0.63;;
22829;SDS011;11581;51.250;6.778;2023-05-07T13:10:56;0.75;;;0.55;;
22829;SDS011;11581;51.250;6.778;2023-05-07T13:13:24;2.03;;;0.70;;
22829;SDS011;11581;51.250;6.778;2023-05-07T13:15:50;2.67;;;0.68;;
22829;SDS011;11581;51.250;6.778;2023-05-07T13:18:20;2.20;;;0.70;;
22829;SDS011;11581;51.250;6.778;2023-05-07T13:20:46;0.93;;;0.50;;
22829;SDS011;11581;51.250;6.778;2023-05-07T13:23:13;1.88;;;0.68;;
22829;SDS011;11581;51.250;6.778;2023-05-07T13:25:42;1.77;;;0.80;;
22829;SDS011;11581;51.250;6.778;2023-05-07T13:28:08;1.20;;;0.70;;
22829;SDS011;11581;51.250;6.778;2023-05-07T13:30:35;0.93;;;0.68;;
22829;SDS011;11581;51.250;6.778;2023-05-07T13:33:01;1.38;;;0.70;;
22829;SDS011;11581;51.250;6.778;2023-05-07T13:35:28;1.70;;;0.77;;
22829;SDS011;11581;51.250;6.778;2023-05-07T13:37:54;0.90;;;0.60;;
22829;SDS011;11581;51.250;6.778;2023-05-07T13:40:21;1.75;;;0.63;;
22829;SDS011;11581;51.250;6.778;2023-05-07T13:42:48;2.65;;;0.90;;
22829;SDS011;11581;51.250;6.778;2023-05-07T13:45:16;1.52;;;0.60;;
22829;SDS011;11581;51.250;6.778;2023-05-07T13:47:43;2.00;;;0.80;;
22829;SDS011;11581;51.250;6.778;2023-05-07T13:50:10;1.13;;;0.65;;
22829;SDS011;11581;51.250;6.778;2023-05-07T13:52:39;1.83;;;0.63;;
22829;SDS011;11581;51.250;6.778;2023-05-07T13:55:08;3.42;;;0.63;;
22829;SDS011;11581;51.250;6.778;2023-05-07T13:57:35;1.92;;;1.00;;
22829;SDS011;11581;51.250;6.778;2023-05-07T14:00:02;1.33;;;0.90;;
22829;SDS011;11581;51.250;6.778;2023-05-07T14:02:40;1.40;;;0.93;;
22829;SDS011;11581;51.250;6.778;2023-05-07T14:05:07;2.10;;;1.30;;
22829;SDS011;11581;51.250;6.778;2023-05-07T14:07:34;2.20;;;1.10;;
22829;SDS011;11581;51.250;6.778;2023-05-07T14:10:01;2.70;;;1.63;;
22829;SDS011;11581;51.250;6.778;2023-05-07T14:12:28;3.78;;;1.67;;
22829;SDS011;11581;51.250;6.778;2023-05-07T14:14:55;2.15;;;1.33;;
22829;SDS011;11581;51.250;6.778;2023-05-07T14:17:21;3.60;;;1.33;;
22829;SDS011;11581;51.250;6.778;2023-05-07T14:19:48;2.65;;;1.40;;
22829;SDS011;11581;51.250;6.778;2023-05-07T14:22:14;3.35;;;1.48;;
22829;SDS011;11581;51.250;6.778;2023-05-07T14:24:41;2.55;;;1.35;;
22829;SDS011;11581;51.250;6.778;2023-05-07T14:27:07;2.78;;;1.50;;
22829;SDS011;11581;51.250;6.778;2023-05-07T14:29:34;3.60;;;1.48;;
22829;SDS011;11581;51.250;6.778;2023-05-07T14:32:01;4.15;;;1.60;;
22829;SDS011;11581;51.250;6.778;2023-05-07T14:34:29;4.30;;;1.50;;
22829;SDS011;11581;51.250;6.778;2023-05-07T14:36:55;2.28;;;1.20;;
22829;SDS011;11581;51.250;6.778;2023-05-07T14:39:21;3.03;;;1.58;;
22829;SDS011;11581;51.250;6.778;2023-05-07T14:41:48;2.22;;;1.20;;
22829;SDS011;11581;51.250;6.778;2023-05-07T14:44:14;3.78;;;1.45;;
22829;SDS011;11581;51.250;6.778;2023-05-07T14:46:41;2.65;;;1.40;;
22829;SDS011;11581;51.250;6.778;2023-05-07T14:49:07;2.28;;;1.42;;
22829;SDS011;11581;51.250;6.778;2023-05-07T14:51:41;2.53;;;1.50;;
22829;SDS011;11581;51.250;6.778;2023-05-07T14:54:07;3.30;;;1.60;;
22829;SDS011;11581;51.250;6.778;2023-05-07T14:56:34;2.78;;;1.77;;
22829;SDS011;11581;51.250;6.778;2023-05-07T14:59:02;3.65;;;1.83;;
22829;SDS011;11581;51.250;6.778;2023-05-07T15:01:29;3.28;;;1.80;;
22829;SDS011;11581;51.250;6.778;2023-05-07T15:03:55;4.43;;;2.10;;
22829;SDS011;11581;51.250;6.778;2023-05-07T15:06:22;3.42;;;1.80;;
22829;SDS011;11581;51.250;6.778;2023-05-07T15:08:48;3.33;;;1.55;;